sensor_id;sensor_type;location;lat;lon;timestamp;P1;durP1;ratioP1;P2;durP2;ratioP2
29172;SDS011;16223;47.966;-1.616;2022-08-18T00:00:24;101.0;;;33.25;;
29172;SDS011;16223;47.966;-1.616;2022-08-18T00:01:24;105.05;;;28.299999999999997;;
29172;SDS011;16223;47.966;-1.616;2022-08-18T00:02:25;124.15;;;44.15;;
29172;SDS011;16223;47.966;-1.616;2022-08-18T00:03:24;117.63333333333333;;;43.46666666666667;;
29172;SDS011;16223;47.966;-1.616;2022-08-18T00:04:47;136.8;;;45.2;;
29172;SDS011;16223;47.966;-1.616;2022-08-18T00:05:46;66.2;;;27.4;;
29172;SDS011;16223;47.966;-1.616;2022-08-18T00:06:46;95.6;;;30.7;;
29172;SDS011;16223;47.966;-1.616;2022-08-18T00:07:47;108.4;;;33.05;;
29172;SDS011;16223;47.966;-1.616;2022-08-18T00:08:47;117.5;;;36.849999999999994;;
29172;SDS011;16223;47.966;-1.616;2022-08-18T00:09:47;92.8;;;28.0;;
29172;SDS011;16223;47.966;-1.616;2022-08-18T00:10:47;76.4;;;34.9;;
29172;SDS011;16223;47.966;-1.616;2022-08-18T00:11:47;96.85;;;30.8;;
29172;SDS011;16223;47.966;-1.616;2022-08-18T00:12:47;145.7;;;43.5;;
29172;SDS011;16223;47.966;-1.616;2022-08-18T00:13:47;89.1;;;36.8;;
29172;SDS011;16223;47.966;-1.616;2022-08-18T00:14:47;118.6;;;32.0;;
29172;SDS011;16223;47.966;-1.616;2022-08-18T00:21:57;148.0;;;46.7;;
29172;SDS011;16223;47.966;-1.616;2022-08-18T00:23:21;129.7;;;42.0;;
29172;SDS011;16223;47.966;-1.616;2022-08-18T00:24:21;98.4;;;26.2;;
29172;SDS011;16223;47.966;-1.616;2022-08-18T00:25:21;131.95;;;48.75;;
29172;SDS011;16223;47.966;-1.616;2022-08-18T00:26:21;102.3;;;32.15;;
29172;SDS011;16223;47.966;-1.616;2022-08-18T00:27:22;120.15;;;32.1;;
29172;SDS011;16223;47.966;-1.616;2022-08-18T00:28:21;140.0;;;33.4;;
29172;SDS011;16223;47.966;-1.616;2022-08-18T00:29:21;120.3;;;40.7;;
29172;SDS011;16223;47.966;-1.616;2022-08-18T00:30:21;101.05;;;32.35;;
29172;SDS011;16223;47.966;-1.616;2022-08-18T00:31:21;123.3;;;33.4;;
29172;SDS011;16223;47.966;-1.616;2022-08-18T00:32:22;88.2;;;30.8;;
29172;SDS011;16223;47.966;-1.616;2022-08-18T00:33:21;110.1;;;30.5;;
29172;SDS011;16223;47.966;-1.616;2022-08-18T00:34:21;118.4;;;38.1;;
29172;SDS011;16223;47.966;-1.616;2022-08-18T00:35:22;82.6;;;33.0;;
29172;SDS011;16223;47.966;-1.616;2022-08-18T00:36:21;97.9;;;47.5;;
29172;SDS011;16223;47.966;-1.616;2022-08-18T00:37:21;81.2;;;33.6;;
29172;SDS011;16223;47.966;-1.616;2022-08-18T00:38:21;101.7;;;28.9;;
29172;SDS011;16223;47.966;-1.616;2022-08-18T00:39:21;118.6;;;38.6;;
29172;SDS011;16223;47.966;-1.616;2022-08-18T00:40:23;106.25;;;33.6;;
29172;SDS011;16223;47.966;-1.616;2022-08-18T00:41:21;130.4;;;30.2;;
29172;SDS011;16223;47.966;-1.616;2022-08-18T00:42:22;97.4;;;30.9;;
29172;SDS011;16223;47.966;-1.616;2022-08-18T00:43:22;96.8;;;34.6;;
29172;SDS011;16223;47.966;-1.616;2022-08-18T00:44:21;108.55;;;35.05;;
29172;SDS011;16223;47.966;-1.616;2022-08-18T00:45:22;129.4;;;32.6;;
29172;SDS011;16223;47.966;-1.616;2022-08-18T00:46:22;130.1;;;34.8;;
29172;SDS011;16223;47.966;-1.616;2022-08-18T00:47:21;129.0;;;29.6;;
29172;SDS011;16223;47.966;-1.616;2022-08-18T00:48:21;79.4;;;26.3;;
29172;SDS011;16223;47.966;-1.616;2022-08-18T01:21:23;144.6;;;48.1;;
29172;SDS011;16223;47.966;-1.616;2022-08-18T01:22:23;126.7;;;31.8;;
29172;SDS011;16223;47.966;-1.616;2022-08-18T01:23:21;113.14999999999999;;;43.25;;
29172;SDS011;16223;47.966;-1.616;2022-08-18T01:24:23;143.8;;;32.7;;
29172;SDS011;16223;47.966;-1.616;2022-08-18T01:25:21;116.2;;;40.2;;
29172;SDS011;16223;47.966;-1.616;2022-08-18T01:26:21;75.3;;;35.0;;
29172;SDS011;16223;47.966;-1.616;2022-08-18T01:27:21;139.3;;;32.8;;
29172;SDS011;16223;47.966;-1.616;2022-08-18T01:28:21;115.7;;;34.2;;
29172;SDS011;16223;47.966;-1.616;2022-08-18T01:29:21;97.0;;;31.1;;
29172;SDS011;16223;47.966;-1.616;2022-08-18T01:30:22;84.7;;;21.1;;
29172;SDS011;16223;47.966;-1.616;2022-08-18T01:31:30;92.4;;;32.7;;
29172;SDS011;16223;47.966;-1.616;2022-08-18T01:32:21;143.8;;;47.9;;
29172;SDS011;16223;47.966;-1.616;2022-08-18T01:33:21;108.5;;;33.7;;
29172;SDS011;16223;47.966;-1.616;2022-08-18T05:46:47;141.2;;;53.7;;
29172;SDS011;16223;47.966;-1.616;2022-08-18T05:47:46;125.15;;;34.55;;
29172;SDS011;16223;47.966;-1.616;2022-08-18T05:48:46;93.4;;;32.5;;
29172;SDS011;16223;47.966;-1.616;2022-08-18T05:49:46;109.7;;;30.8;;
29172;SDS011;16223;47.966;-1.616;2022-08-18T05:50:46;81.0;;;26.7;;
29172;SDS011;16223;47.966;-1.616;2022-08-18T05:51:48;130.7;;;31.1;;
29172;SDS011;16223;47.966;-1.616;2022-08-18T05:52:48;113.8;;;33.3;;
29172;SDS011;16223;47.966;-1.616;2022-08-18T05:56:51;148.6;;;45.1;;
29172;SDS011;16223;47.966;-1.616;2022-08-18T05:57:51;92.6;;;24.9;;
29172;SDS011;16223;47.966;-1.616;2022-08-18T05:58:51;114.65;;;36.55;;
29172;SDS011;16223;47.966;-1.616;2022-08-18T05:59:51;145.2;;;36.9;;
29172;SDS011;16223;47.966;-1.616;2022-08-18T06:00:52;108.2;;;24.4;;
29172;SDS011;16223;47.966;-1.616;2022-08-18T06:01:53;99.4;;;29.4;;
29172;SDS011;16223;47.966;-1.616;2022-08-18T06:02:51;121.3;;;23.0;;
29172;SDS011;16223;47.966;-1.616;2022-08-18T06:03:52;120.5;;;44.8;;
29172;SDS011;16223;47.966;-1.616;2022-08-18T06:04:52;125.3;;;31.1;;
29172;SDS011;16223;47.966;-1.616;2022-08-18T06:05:52;91.5;;;31.1;;
29172;SDS011;16223;47.966;-1.616;2022-08-18T06:06:51;70.3;;;25.1;;
29172;SDS011;16223;47.966;-1.616;2022-08-18T06:07:51;102.65;;;35.599999999999994;;
29172;SDS011;16223;47.966;-1.616;2022-08-18T06:08:51;115.3;;;30.7;;
29172;SDS011;16223;47.966;-1.616;2022-08-18T06:09:52;115.4;;;32.3;;
29172;SDS011;16223;47.966;-1.616;2022-08-18T06:10:50;126.05;;;33.75;;
29172;SDS011;16223;47.966;-1.616;2022-08-18T06:11:51;89.5;;;26.8;;
29172;SDS011;16223;47.966;-1.616;2022-08-18T06:12:51;131.8;;;34.7;;
29172;SDS011;16223;47.966;-1.616;2022-08-18T06:13:51;127.9;;;38.3;;
29172;SDS011;16223;47.966;-1.616;2022-08-18T06:14:51;82.4;;;22.1;;
29172;SDS011;16223;47.966;-1.616;2022-08-18T06:15:51;108.8;;;34.6;;
29172;SDS011;16223;47.966;-1.616;2022-08-18T06:16:52;90.0;;;25.8;;
29172;SDS011;16223;47.966;-1.616;2022-08-18T06:18:09;127.3;;;36.0;;
29172;SDS011;16223;47.966;-1.616;2022-08-18T06:18:52;99.0;;;23.5;;
29172;SDS011;16223;47.966;-1.616;2022-08-18T06:19:51;91.8;;;28.1;;
29172;SDS011;16223;47.966;-1.616;2022-08-18T06:20:55;131.1;;;43.7;;
29172;SDS011;16223;47.966;-1.616;2022-08-18T06:21:52;91.75;;;37.25;;
29172;SDS011;16223;47.966;-1.616;2022-08-18T06:22:52;132.6;;;40.0;;
29172;SDS011;16223;47.966;-1.616;2022-08-18T06:23:54;106.1;;;29.7;;
29172;SDS011;16223;47.966;-1.616;2022-08-18T06:25:42;120.7;;;38.0;;
29172;SDS011;16223;47.966;-1.616;2022-08-18T06:26:39;148.3;;;34.0;;
29172;SDS011;16223;47.966;-1.616;2022-08-18T06:27:37;102.0;;;30.5;;
29172;SDS011;16223;47.966;-1.616;2022-08-18T06:28:41;103.9;;;23.5;;
29172;SDS011;16223;47.966;-1.616;2022-08-18T06:29:40;106.75;;;32.4;;
29172;SDS011;16223;47.966;-1.616;2022-08-18T06:30:42;117.5;;;43.76666666666667;;
29172;SDS011;16223;47.966;-1.616;2022-08-18T06:31:39;147.2;;;37.8;;
29172;SDS011;16223;47.966;-1.616;2022-08-18T06:32:41;115.6;;;39.6;;
29172;SDS011;16223;47.966;-1.616;2022-08-18T06:33:49;117.53333333333335;;;41.03333333333333;;
29172;SDS011;16223;47.966;-1.616;2022-08-18T06:34:45;93.9;;;37.8;;
29172;SDS011;16223;47.966;-1.616;2022-08-18T06:35:37;115.2;;;30.9;;
29172;SDS011;16223;47.966;-1.616;2022-08-18T06:36:38;100.63333333333333;;;38.1;;
29172;SDS011;16223;47.966;-1.616;2022-08-18T06:37:38;121.1;;;36.0;;
29172;SDS011;16223;47.966;-1.616;2022-08-18T06:38:39;115.8;;;38.6;;
29172;SDS011;16223;47.966;-1.616;2022-08-18T06:39:38;121.85;;;43.35;;
29172;SDS011;16223;47.966;-1.616;2022-08-18T06:40:37;93.9;;;32.7;;
29172;SDS011;16223;47.966;-1.616;2022-08-18T06:41:37;114.76666666666665;;;36.4;;
29172;SDS011;16223;47.966;-1.616;2022-08-18T06:42:37;109.1;;;34.8;;
29172;SDS011;16223;47.966;-1.616;2022-08-18T06:43:37;128.03333333333333;;;42.9;;
29172;SDS011;16223;47.966;-1.616;2022-08-18T06:44:38;104.25;;;28.25;;
29172;SDS011;16223;47.966;-1.616;2022-08-18T06:45:37;79.0;;;27.8;;
29172;SDS011;16223;47.966;-1.616;2022-08-18T06:46:39;109.95;;;30.85;;
29172;SDS011;16223;47.966;-1.616;2022-08-18T06:47:38;103.96666666666665;;;33.56666666666666;;
29172;SDS011;16223;47.966;-1.616;2022-08-18T06:48:39;93.44999999999999;;;31.150000000000002;;
29172;SDS011;16223;47.966;-1.616;2022-08-18T06:49:38;68.2;;;21.2;;
29172;SDS011;16223;47.966;-1.616;2022-08-18T06:50:39;121.35;;;38.75;;
29172;SDS011;16223;47.966;-1.616;2022-08-18T06:51:37;105.43333333333334;;;34.0;;
29172;SDS011;16223;47.966;-1.616;2022-08-18T06:52:37;90.8;;;30.0;;
29172;SDS011;16223;47.966;-1.616;2022-08-18T06:53:48;132.6;;;29.1;;
29172;SDS011;16223;47.966;-1.616;2022-08-18T06:54:37;118.75;;;35.05;;
29172;SDS011;16223;47.966;-1.616;2022-08-18T06:55:37;117.24999999999999;;;40.225;;
29172;SDS011;16223;47.966;-1.616;2022-08-18T06:56:45;110.05000000000001;;;37.95;;
29172;SDS011;16223;47.966;-1.616;2022-08-18T06:57:37;124.025;;;43.324999999999996;;
29172;SDS011;16223;47.966;-1.616;2022-08-18T06:58:37;111.575;;;37.25;;
29172;SDS011;16223;47.966;-1.616;2022-08-18T06:59:36;124.25;;;44.75;;
29172;SDS011;16223;47.966;-1.616;2022-08-18T07:00:36;98.95;;;33.4;;
29172;SDS011;16223;47.966;-1.616;2022-08-18T07:01:36;117.6;;;38.760000000000005;;
29172;SDS011;16223;47.966;-1.616;2022-08-18T07:02:39;120.8;;;43.525000000000006;;
29172;SDS011;16223;47.966;-1.616;2022-08-18T07:03:42;126.35;;;47.25;;
29172;SDS011;16223;47.966;-1.616;2022-08-18T07:04:38;124.5;;;47.75;;
29172;SDS011;16223;47.966;-1.616;2022-08-18T07:05:37;120.39999999999999;;;42.199999999999996;;
29172;SDS011;16223;47.966;-1.616;2022-08-18T07:06:37;107.2;;;42.15;;
29172;SDS011;16223;47.966;-1.616;2022-08-18T07:07:38;121.54;;;40.24;;
29172;SDS011;16223;47.966;-1.616;2022-08-18T07:08:37;69.1;;;25.0;;
29172;SDS011;16223;47.966;-1.616;2022-08-18T07:09:36;120.16;;;46.68;;
29172;SDS011;16223;47.966;-1.616;2022-08-18T07:10:38;139.0;;;39.56666666666667;;
29172;SDS011;16223;47.966;-1.616;2022-08-18T07:11:36;123.58333333333336;;;48.36666666666667;;
29172;SDS011;16223;47.966;-1.616;2022-08-18T07:12:37;109.75;;;38.724999999999994;;
29172;SDS011;16223;47.966;-1.616;2022-08-18T07:13:37;103.4;;;40.3;;
29172;SDS011;16223;47.966;-1.616;2022-08-18T07:14:45;125.45;;;43.54999999999999;;
29172;SDS011;16223;47.966;-1.616;2022-08-18T07:15:37;125.82499999999999;;;44.0625;;
29172;SDS011;16223;47.966;-1.616;2022-08-18T07:16:39;127.48333333333333;;;44.53333333333333;;
29172;SDS011;16223;47.966;-1.616;2022-08-18T07:17:37;99.1125;;;40.75;;
29172;SDS011;16223;47.966;-1.616;2022-08-18T07:18:37;129.15;;;48.7375;;
29172;SDS011;16223;47.966;-1.616;2022-08-18T07:19:37;112.4375;;;43.4625;;
29172;SDS011;16223;47.966;-1.616;2022-08-18T07:20:40;121.4875;;;46.425;;
29172;SDS011;16223;47.966;-1.616;2022-08-18T07:21:37;129.5125;;;44.825;;
29172;SDS011;16223;47.966;-1.616;2022-08-18T07:22:50;120.8125;;;53.837500000000006;;
29172;SDS011;16223;47.966;-1.616;2022-08-18T07:23:37;114.4625;;;43.6875;;
29172;SDS011;16223;47.966;-1.616;2022-08-18T07:24:38;117.3875;;;42.400000000000006;;
29172;SDS011;16223;47.966;-1.616;2022-08-18T07:25:37;132.36666666666665;;;45.4;;
29172;SDS011;16223;47.966;-1.616;2022-08-18T07:26:56;129.7;;;54.1125;;
29172;SDS011;16223;47.966;-1.616;2022-08-18T07:27:41;110.51249999999999;;;43.4375;;
29172;SDS011;16223;47.966;-1.616;2022-08-18T07:28:38;113.5625;;;43.9375;;
29172;SDS011;16223;47.966;-1.616;2022-08-18T07:29:38;112.15;;;42.5625;;
29172;SDS011;16223;47.966;-1.616;2022-08-18T07:30:37;112.09999999999998;;;41.766666666666666;;
29172;SDS011;16223;47.966;-1.616;2022-08-18T07:31:38;116.4875;;;46.0125;;
29172;SDS011;16223;47.966;-1.616;2022-08-18T07:32:38;119.92500000000001;;;45.0;;
29172;SDS011;16223;47.966;-1.616;2022-08-18T07:33:37;104.80000000000001;;;40.95;;
29172;SDS011;16223;47.966;-1.616;2022-08-18T07:34:38;131.475;;;48.6375;;
29172;SDS011;16223;47.966;-1.616;2022-08-18T07:35:37;107.3875;;;38.849999999999994;;
29172;SDS011;16223;47.966;-1.616;2022-08-18T07:36:39;104.725;;;41.212500000000006;;
29172;SDS011;16223;47.966;-1.616;2022-08-18T07:37:37;124.95714285714287;;;54.25714285714285;;
29172;SDS011;16223;47.966;-1.616;2022-08-18T07:38:37;131.8;;;53.4875;;
29172;SDS011;16223;47.966;-1.616;2022-08-18T07:39:37;113.1875;;;46.5;;
29172;SDS011;16223;47.966;-1.616;2022-08-18T07:40:37;110.8625;;;44.837500000000006;;
29172;SDS011;16223;47.966;-1.616;2022-08-18T07:41:38;110.35;;;47.275;;
29172;SDS011;16223;47.966;-1.616;2022-08-18T07:42:39;106.11250000000001;;;42.475;;
29172;SDS011;16223;47.966;-1.616;2022-08-18T07:43:38;103.275;;;43.725;;
29172;SDS011;16223;47.966;-1.616;2022-08-18T07:44:39;122.6;;;46.962500000000006;;
29172;SDS011;16223;47.966;-1.616;2022-08-18T07:45:39;108.26249999999999;;;41.2375;;
29172;SDS011;16223;47.966;-1.616;2022-08-18T07:46:37;102.1;;;38.175;;
29172;SDS011;16223;47.966;-1.616;2022-08-18T07:47:40;91.325;;;36.925;;
29172;SDS011;16223;47.966;-1.616;2022-08-18T07:48:37;103.45;;;43.75;;
29172;SDS011;16223;47.966;-1.616;2022-08-18T07:49:37;95.775;;;39.5;;
29172;SDS011;16223;47.966;-1.616;2022-08-18T07:50:38;79.9;;;38.875;;
29172;SDS011;16223;47.966;-1.616;2022-08-18T07:51:40;104.94999999999999;;;36.1375;;
29172;SDS011;16223;47.966;-1.616;2022-08-18T07:52:38;103.05;;;39.6875;;
29172;SDS011;16223;47.966;-1.616;2022-08-18T07:53:39;82.1125;;;34.9125;;
29172;SDS011;16223;47.966;-1.616;2022-08-18T07:54:39;106.2875;;;49.875;;
29172;SDS011;16223;47.966;-1.616;2022-08-18T07:55:37;71.0;;;32.699999999999996;;
29172;SDS011;16223;47.966;-1.616;2022-08-18T07:56:38;91.76249999999999;;;40.3625;;
29172;SDS011;16223;47.966;-1.616;2022-08-18T07:57:40;81.6375;;;37.3375;;
29172;SDS011;16223;47.966;-1.616;2022-08-18T07:58:38;77.8;;;32.8;;
29172;SDS011;16223;47.966;-1.616;2022-08-18T07:59:38;78.0375;;;33.6375;;
29172;SDS011;16223;47.966;-1.616;2022-08-18T08:00:38;91.0875;;;34.4625;;
29172;SDS011;16223;47.966;-1.616;2022-08-18T08:01:38;104.075;;;46.5625;;
29172;SDS011;16223;47.966;-1.616;2022-08-18T08:02:39;97.08749999999999;;;44.5125;;
29172;SDS011;16223;47.966;-1.616;2022-08-18T08:03:40;79.8375;;;32.225;;
29172;SDS011;16223;47.966;-1.616;2022-08-18T08:04:38;106.0625;;;40.9125;;
29172;SDS011;16223;47.966;-1.616;2022-08-18T08:05:39;90.5375;;;33.9625;;
29172;SDS011;16223;47.966;-1.616;2022-08-18T08:06:38;84.65;;;36.5125;;
29172;SDS011;16223;47.966;-1.616;2022-08-18T08:07:39;86.85;;;38.375;;
29172;SDS011;16223;47.966;-1.616;2022-08-18T08:08:39;91.65;;;41.6875;;
29172;SDS011;16223;47.966;-1.616;2022-08-18T08:09:39;95.6875;;;39.8625;;
29172;SDS011;16223;47.966;-1.616;2022-08-18T08:10:38;89.475;;;37.85;;
29172;SDS011;16223;47.966;-1.616;2022-08-18T08:11:39;75.6875;;;33.5875;;
29172;SDS011;16223;47.966;-1.616;2022-08-18T08:12:38;84.375;;;40.025;;
29172;SDS011;16223;47.966;-1.616;2022-08-18T08:13:41;99.55;;;38.05;;
29172;SDS011;16223;47.966;-1.616;2022-08-18T08:14:40;74.8125;;;29.5875;;
29172;SDS011;16223;47.966;-1.616;2022-08-18T08:15:40;98.925;;;40.95;;
29172;SDS011;16223;47.966;-1.616;2022-08-18T08:16:40;93.19999999999999;;;36.8875;;
29172;SDS011;16223;47.966;-1.616;2022-08-18T08:17:38;87.425;;;37.087500000000006;;
29172;SDS011;16223;47.966;-1.616;2022-08-18T08:18:39;88.2125;;;38.325;;
29172;SDS011;16223;47.966;-1.616;2022-08-18T08:19:41;85.23750000000001;;;40.5;;
29172;SDS011;16223;47.966;-1.616;2022-08-18T08:20:38;89.6375;;;41.825;;
29172;SDS011;16223;47.966;-1.616;2022-08-18T08:21:38;87.875;;;44.425;;
29172;SDS011;16223;47.966;-1.616;2022-08-18T08:22:38;90.35;;;39.9375;;
29172;SDS011;16223;47.966;-1.616;2022-08-18T08:23:39;79.125;;;34.112500000000004;;
29172;SDS011;16223;47.966;-1.616;2022-08-18T08:24:38;75.2875;;;33.5125;;
29172;SDS011;16223;47.966;-1.616;2022-08-18T08:25:40;87.45;;;38.462500000000006;;
29172;SDS011;16223;47.966;-1.616;2022-08-18T08:26:41;87.45;;;33.837500000000006;;
29172;SDS011;16223;47.966;-1.616;2022-08-18T08:27:42;95.875;;;40.2375;;
29172;SDS011;16223;47.966;-1.616;2022-08-18T08:28:39;93.69999999999999;;;37.537499999999994;;
29172;SDS011;16223;47.966;-1.616;2022-08-18T08:29:38;79.4;;;36.2625;;
29172;SDS011;16223;47.966;-1.616;2022-08-18T08:30:38;81.55;;;35.2375;;
29172;SDS011;16223;47.966;-1.616;2022-08-18T08:31:39;92.475;;;35.75;;
29172;SDS011;16223;47.966;-1.616;2022-08-18T08:32:38;84.925;;;37.525000000000006;;
29172;SDS011;16223;47.966;-1.616;2022-08-18T08:33:39;90.675;;;36.85;;
29172;SDS011;16223;47.966;-1.616;2022-08-18T08:34:38;84.45;;;41.925;;
29172;SDS011;16223;47.966;-1.616;2022-08-18T08:35:38;98.05;;;41.4375;;
29172;SDS011;16223;47.966;-1.616;2022-08-18T08:36:37;70.82499999999999;;;35.7625;;
29172;SDS011;16223;47.966;-1.616;2022-08-18T08:37:38;71.4375;;;34.925;;
29172;SDS011;16223;47.966;-1.616;2022-08-18T08:38:39;89.4375;;;36.675;;
29172;SDS011;16223;47.966;-1.616;2022-08-18T08:39:39;80.0625;;;34.7;;
29172;SDS011;16223;47.966;-1.616;2022-08-18T08:40:41;74.775;;;34.6;;
29172;SDS011;16223;47.966;-1.616;2022-08-18T08:41:38;69.8;;;35.449999999999996;;
29172;SDS011;16223;47.966;-1.616;2022-08-18T08:42:37;70.0875;;;29.950000000000003;;
29172;SDS011;16223;47.966;-1.616;2022-08-18T08:43:38;82.3375;;;37.537499999999994;;
29172;SDS011;16223;47.966;-1.616;2022-08-18T08:44:37;86.9;;;39.762499999999996;;
29172;SDS011;16223;47.966;-1.616;2022-08-18T08:45:38;74.5125;;;36.6875;;
29172;SDS011;16223;47.966;-1.616;2022-08-18T08:46:39;67.42500000000001;;;33.125;;
29172;SDS011;16223;47.966;-1.616;2022-08-18T08:47:39;68.9875;;;32.412499999999994;;
29172;SDS011;16223;47.966;-1.616;2022-08-18T08:48:39;77.9875;;;32.362500000000004;;
29172;SDS011;16223;47.966;-1.616;2022-08-18T08:49:38;65.38749999999999;;;32.387499999999996;;
29172;SDS011;16223;47.966;-1.616;2022-08-18T08:50:38;69.125;;;35.5125;;
29172;SDS011;16223;47.966;-1.616;2022-08-18T08:51:37;73.8;;;31.9875;;
29172;SDS011;16223;47.966;-1.616;2022-08-18T08:52:39;77.20000000000002;;;34.9625;;
29172;SDS011;16223;47.966;-1.616;2022-08-18T08:53:37;74.57499999999999;;;38.3;;
29172;SDS011;16223;47.966;-1.616;2022-08-18T08:54:39;70.7625;;;32.525;;
29172;SDS011;16223;47.966;-1.616;2022-08-18T08:55:42;61.7875;;;29.349999999999998;;
29172;SDS011;16223;47.966;-1.616;2022-08-18T08:56:39;61.7125;;;29.0875;;
29172;SDS011;16223;47.966;-1.616;2022-08-18T08:57:38;60.525000000000006;;;29.475;;
29172;SDS011;16223;47.966;-1.616;2022-08-18T08:58:38;68.175;;;36.775;;
29172;SDS011;16223;47.966;-1.616;2022-08-18T08:59:37;59.1125;;;30.212500000000002;;
29172;SDS011;16223;47.966;-1.616;2022-08-18T09:00:37;70.775;;;32.6125;;
29172;SDS011;16223;47.966;-1.616;2022-08-18T09:01:38;64.3875;;;30.087500000000002;;
29172;SDS011;16223;47.966;-1.616;2022-08-18T09:02:42;50.925000000000004;;;24.85;;
29172;SDS011;16223;47.966;-1.616;2022-08-18T09:03:38;59.1375;;;26.137500000000003;;
29172;SDS011;16223;47.966;-1.616;2022-08-18T09:04:39;56.650000000000006;;;27.7875;;
29172;SDS011;16223;47.966;-1.616;2022-08-18T09:05:38;89.2125;;;32.2375;;
29172;SDS011;16223;47.966;-1.616;2022-08-18T09:06:38;48.8625;;;27.025;;
29172;SDS011;16223;47.966;-1.616;2022-08-18T09:07:43;64.85;;;30.075;;
29172;SDS011;16223;47.966;-1.616;2022-08-18T09:08:40;71.1875;;;29.75;;
29172;SDS011;16223;47.966;-1.616;2022-08-18T09:09:44;58.775;;;29.5375;;
29172;SDS011;16223;47.966;-1.616;2022-08-18T09:10:41;64.475;;;26.9625;;
29172;SDS011;16223;47.966;-1.616;2022-08-18T09:11:41;70.5125;;;42.025;;
29172;SDS011;16223;47.966;-1.616;2022-08-18T09:12:41;68.9;;;34.6;;
29172;SDS011;16223;47.966;-1.616;2022-08-18T09:14:22;57.5625;;;26.55;;
29172;SDS011;16223;47.966;-1.616;2022-08-18T09:15:43;62.175;;;29.125;;
29172;SDS011;16223;47.966;-1.616;2022-08-18T09:16:40;59.175;;;29.200000000000003;;
29172;SDS011;16223;47.966;-1.616;2022-08-18T09:17:56;54.125;;;27.925;;
29172;SDS011;16223;47.966;-1.616;2022-08-18T09:18:41;56.662499999999994;;;27.0875;;
29172;SDS011;16223;47.966;-1.616;2022-08-18T09:19:41;52.175;;;24.9125;;
29172;SDS011;16223;47.966;-1.616;2022-08-18T09:20:45;54.2125;;;29.587500000000002;;
29172;SDS011;16223;47.966;-1.616;2022-08-18T09:21:38;48.7375;;;29.575000000000003;;
29172;SDS011;16223;47.966;-1.616;2022-08-18T09:22:39;60.1125;;;30.625;;
29172;SDS011;16223;47.966;-1.616;2022-08-18T09:23:39;54.400000000000006;;;28.0;;
29172;SDS011;16223;47.966;-1.616;2022-08-18T09:24:38;53.7625;;;28.1625;;
29172;SDS011;16223;47.966;-1.616;2022-08-18T09:25:45;52.95;;;30.225;;
29172;SDS011;16223;47.966;-1.616;2022-08-18T09:26:39;60.975;;;32.025;;
29172;SDS011;16223;47.966;-1.616;2022-08-18T09:27:38;53.9375;;;30.0;;
29172;SDS011;16223;47.966;-1.616;2022-08-18T09:28:43;65.2;;;36.625;;
29172;SDS011;16223;47.966;-1.616;2022-08-18T09:29:46;66.69999999999999;;;34.375;;
29172;SDS011;16223;47.966;-1.616;2022-08-18T09:30:39;54.5125;;;27.8375;;
29172;SDS011;16223;47.966;-1.616;2022-08-18T09:31:37;57.724999999999994;;;32.2;;
29172;SDS011;16223;47.966;-1.616;2022-08-18T09:32:42;57.4;;;29.1;;
29172;SDS011;16223;47.966;-1.616;2022-08-18T09:33:45;54.787499999999994;;;24.8875;;
29172;SDS011;16223;47.966;-1.616;2022-08-18T09:35:51;54.0625;;;27.612499999999997;;
29172;SDS011;16223;47.966;-1.616;2022-08-18T09:36:40;44.3625;;;24.1625;;
29172;SDS011;16223;47.966;-1.616;2022-08-18T09:37:41;55.4;;;30.324999999999996;;
29172;SDS011;16223;47.966;-1.616;2022-08-18T09:38:37;50.325;;;27.412499999999998;;
29172;SDS011;16223;47.966;-1.616;2022-08-18T09:39:37;47.525;;;28.5875;;
29172;SDS011;16223;47.966;-1.616;2022-08-18T09:40:43;51.075;;;26.612499999999997;;
29172;SDS011;16223;47.966;-1.616;2022-08-18T09:41:38;57.725;;;30.3375;;
29172;SDS011;16223;47.966;-1.616;2022-08-18T09:42:37;46.375;;;24.474999999999998;;
29172;SDS011;16223;47.966;-1.616;2022-08-18T09:43:38;49.2375;;;29.987500000000004;;
29172;SDS011;16223;47.966;-1.616;2022-08-18T09:45:10;42.775000000000006;;;24.35;;
29172;SDS011;16223;47.966;-1.616;2022-08-18T09:46:55;47.625;;;22.375;;
29172;SDS011;16223;47.966;-1.616;2022-08-18T09:48:42;40.875;;;22.775;;
29172;SDS011;16223;47.966;-1.616;2022-08-18T09:49:42;43.75;;;23.0125;;
29172;SDS011;16223;47.966;-1.616;2022-08-18T09:50:50;42.8625;;;22.5375;;
29172;SDS011;16223;47.966;-1.616;2022-08-18T09:51:36;39.3375;;;22.5625;;
29172;SDS011;16223;47.966;-1.616;2022-08-18T09:52:46;39.9625;;;19.9375;;
29172;SDS011;16223;47.966;-1.616;2022-08-18T09:53:51;27.6875;;;15.862499999999999;;
29172;SDS011;16223;47.966;-1.616;2022-08-18T09:54:37;30.8125;;;18.4;;
29172;SDS011;16223;47.966;-1.616;2022-08-18T09:55:54;33.325;;;20.962500000000002;;
29172;SDS011;16223;47.966;-1.616;2022-08-18T09:57:42;32.1;;;21.099999999999998;;
29172;SDS011;16223;47.966;-1.616;2022-08-18T09:58:48;38.537499999999994;;;19.75;;
29172;SDS011;16223;47.966;-1.616;2022-08-18T09:59:49;32.425;;;20.212500000000002;;
29172;SDS011;16223;47.966;-1.616;2022-08-18T10:00:36;33.4375;;;23.775000000000002;;
29172;SDS011;16223;47.966;-1.616;2022-08-18T10:01:37;34.712500000000006;;;20.225;;
29172;SDS011;16223;47.966;-1.616;2022-08-18T10:03:41;26.9375;;;18.012500000000003;;
29172;SDS011;16223;47.966;-1.616;2022-08-18T10:04:39;39.2125;;;20.3875;;
29172;SDS011;16223;47.966;-1.616;2022-08-18T10:05:37;28.200000000000003;;;15.8375;;
29172;SDS011;16223;47.966;-1.616;2022-08-18T10:06:37;37.650000000000006;;;23.325;;
29172;SDS011;16223;47.966;-1.616;2022-08-18T10:07:37;30.762499999999996;;;17.799999999999997;;
29172;SDS011;16223;47.966;-1.616;2022-08-18T10:08:49;37.075;;;22.475;;
29172;SDS011;16223;47.966;-1.616;2022-08-18T10:09:40;38.15;;;21.575;;
29172;SDS011;16223;47.966;-1.616;2022-08-18T10:10:38;34.05;;;19.975;;
29172;SDS011;16223;47.966;-1.616;2022-08-18T10:11:39;40.075;;;24.85;;
29172;SDS011;16223;47.966;-1.616;2022-08-18T10:12:41;33.0625;;;19.9125;;
29172;SDS011;16223;47.966;-1.616;2022-08-18T10:13:39;40.825;;;22.075;;
29172;SDS011;16223;47.966;-1.616;2022-08-18T10:14:52;32.475;;;20.424999999999997;;
29172;SDS011;16223;47.966;-1.616;2022-08-18T10:15:39;31.8625;;;20.487499999999997;;
29172;SDS011;16223;47.966;-1.616;2022-08-18T10:16:40;36.287499999999994;;;19.55;;
29172;SDS011;16223;47.966;-1.616;2022-08-18T10:17:40;35.4125;;;17.45;;
29172;SDS011;16223;47.966;-1.616;2022-08-18T10:18:42;30.5875;;;19.25;;
29172;SDS011;16223;47.966;-1.616;2022-08-18T10:19:39;35.925000000000004;;;21.799999999999997;;
29172;SDS011;16223;47.966;-1.616;2022-08-18T10:20:39;32.474999999999994;;;19.1625;;
29172;SDS011;16223;47.966;-1.616;2022-08-18T10:22:00;28.8625;;;20.0125;;
29172;SDS011;16223;47.966;-1.616;2022-08-18T10:22:38;24.174999999999997;;;17.225;;